Time;durP1;ratioP1;P1;durP2;ratioP2;P2;SDS_P1;SDS_P2;PMS_P1;PMS_P2;Temp;Humidity;BMP_temperature;BMP_pressure;BME280_temperature;BME280_humidity;BME280_pressure;Samples;Min_cycle;Max_cycle;Signal;HPM_P1;HPM_P2
2023/04/16 00:01:47;;;;;;;2.47;1.02;;;;;;;12.15;40.17;93306.53;5006260;28;20069;-78
2023/04/16 00:04:12;;;;;;;3.17;1.38;;;;;;;12.32;40.64;93328.41;5003602;28;20451;-77
2023/04/16 00:06:38;;;;;;;1.75;1.30;;;;;;;12.33;40.42;93337.16;5005561;28;20029;-78
2023/04/16 00:09:03;;;;;;;2.55;1.50;;;;;;;12.21;40.26;93305.22;5004235;28;20492;-78
2023/04/16 00:11:29;;;;;;;3.35;1.27;;;;;;;12.28;40.35;93313.41;5006567;28;20037;-78
2023/04/16 00:13:54;;;;;;;1.85;1.48;;;;;;;12.37;40.26;93328.16;5005249;28;20038;-78
2023/04/16 00:16:20;;;;;;;2.25;1.48;;;;;;;12.36;40.54;93318.63;5003955;28;20048;-77
2023/04/16 00:18:45;;;;;;;5.00;1.50;;;;;;;12.40;40.81;93330.19;5004948;28;20496;-77
2023/04/16 00:21:11;;;;;;;1.60;1.42;;;;;;;12.43;40.28;93328.72;5009647;28;20040;-78
2023/04/16 00:23:36;;;;;;;2.20;1.50;;;;;;;12.40;40.98;93313.41;5005207;28;20053;-78
2023/04/16 00:26:02;;;;;;;4.57;1.60;;;;;;;12.33;40.81;93303.28;5003603;28;20160;-77
2023/04/16 00:28:28;;;;;;;4.35;1.08;;;;;;;12.63;40.44;93325.16;5004878;28;20065;-78
2023/04/16 00:30:54;;;;;;;3.22;1.70;;;;;;;12.52;41.08;93323.28;5004628;28;20033;-77
2023/04/16 00:33:19;;;;;;;2.85;1.27;;;;;;;12.40;40.76;93318.72;5003329;28;20030;-77
2023/04/16 00:35:45;;;;;;;2.92;1.33;;;;;;;12.35;40.90;93322.41;5006449;28;20439;-77
2023/04/16 00:38:11;;;;;;;3.35;1.40;;;;;;;12.26;42.02;93318.31;5005154;28;20033;-77
2023/04/16 00:40:37;;;;;;;1.80;1.10;;;;;;;12.15;42.08;93327.84;5005871;28;20052;-77
2023/04/16 00:43:02;;;;;;;3.83;1.20;;;;;;;11.85;42.40;93308.66;5003412;28;20029;-77
2023/04/16 00:45:28;;;;;;;2.15;1.10;;;;;;;11.76;42.45;93308.75;5003589;28;20053;-78
2023/04/16 00:47:54;;;;;;;2.17;1.40;;;;;;;11.77;42.24;93318.31;5003132;28;20041;-77
2023/04/16 00:50:20;;;;;;;3.17;1.88;;;;;;;11.63;42.35;93303.75;5002837;28;20513;-76
2023/04/16 00:52:47;;;;;;;2.05;1.75;;;;;;;11.57;42.17;93322.63;5003411;28;20165;-78
2023/04/16 00:55:13;;;;;;;3.30;1.38;;;;;;;11.50;42.42;93317.00;5005383;28;20600;-78
2023/04/16 00:57:39;;;;;;;2.20;1.10;;;;;;;11.48;42.54;93316.56;5005805;28;20500;-76
2023/04/16 01:00:05;;;;;;;5.03;1.50;;;;;;;11.37;42.43;93310.13;5004758;28;20037;-77
2023/04/16 01:02:32;;;;;;;2.55;1.40;;;;;;;11.49;43.09;93323.44;5003304;28;20457;-77
2023/04/16 01:04:59;;;;;;;2.25;1.10;;;;;;;11.52;43.06;93314.06;5005424;28;20021;-76
2023/04/16 01:07:24;;;;;;;2.10;1.00;;;;;;;11.51;43.20;93323.16;5005395;28;20038;-77
2023/04/16 01:09:50;;;;;;;4.57;1.30;;;;;;;11.50;42.45;93306.34;5004093;28;20096;-76
2023/04/16 01:12:15;;;;;;;1.25;1.13;;;;;;;11.32;42.97;93312.19;5004775;28;20488;-76
2023/04/16 01:14:41;;;;;;;4.18;1.73;;;;;;;11.39;43.20;93317.78;5004192;28;20052;-77
2023/04/16 01:17:06;;;;;;;1.63;1.52;;;;;;;11.34;43.32;93325.97;5004339;28;20041;-78
2023/04/16 01:19:35;;;;;;;1.95;1.50;;;;;;;11.26;43.56;93321.50;5000889;28;20034;-78
2023/04/16 01:22:00;;;;;;;5.75;1.50;;;;;;;11.23;43.58;93319.50;5005958;28;20116;-78
2023/04/16 01:24:26;;;;;;;1.33;1.10;;;;;;;11.14;43.59;93303.63;5004074;28;20086;-79
2023/04/16 01:26:51;;;;;;;4.40;1.58;;;;;;;11.08;43.33;93303.03;4998764;28;20412;-78
2023/04/16 01:29:17;;;;;;;2.58;1.55;;;;;;;11.10;43.35;93327.44;4998924;28;20081;-78
2023/04/16 01:31:42;;;;;;;3.75;1.52;;;;;;;11.00;43.45;93295.91;4997076;28;20026;-76
2023/04/16 01:34:07;;;;;;;2.47;1.83;;;;;;;11.04;43.33;93294.16;5015555;28;20056;-79
2023/04/16 01:36:33;;;;;;;3.53;1.95;;;;;;;11.14;43.44;93314.28;5006418;28;20029;-77
2023/04/16 01:38:58;;;;;;;2.80;1.85;;;;;;;10.97;43.09;93295.78;5009273;28;20041;-78
2023/04/16 01:41:24;;;;;;;2.60;1.50;;;;;;;10.92;42.99;93283.47;5006204;28;20129;-78
2023/04/16 01:43:50;;;;;;;3.58;1.23;;;;;;;11.09;42.91;93304.59;5005217;28;20033;-77
2023/04/16 01:46:25;;;;;;;1.45;1.10;;;;;;;11.13;42.62;93304.72;5008824;28;20063;-78
2023/04/16 01:48:53;;;;;;;1.60;1.23;;;;;;;10.85;43.05;93256.63;5006637;28;20200;-78
2023/04/16 01:51:19;;;;;;;3.10;1.20;;;;;;;10.93;43.08;93268.28;5010804;28;20381;-77
2023/04/16 01:53:44;;;;;;;3.75;1.25;;;;;;;10.89;43.21;93273.50;5006384;28;20061;-78
2023/04/16 01:56:10;;;;;;;4.00;1.13;;;;;;;10.98;43.33;93292.03;5006920;28;20328;-78
2023/04/16 01:58:35;;;;;;;3.05;1.30;;;;;;;10.89;43.54;93272.72;5006739;28;20065;-78
2023/04/16 02:01:01;;;;;;;2.17;1.23;;;;;;;10.95;43.74;93293.47;5003647;28;20049;-78
2023/04/16 02:03:27;;;;;;;3.95;1.50;;;;;;;10.93;43.99;93295.69;5008489;28;20399;-77
2023/04/16 02:05:52;;;;;;;4.47;1.20;;;;;;;10.82;43.71;93278.56;5007057;28;20053;-77
2023/04/16 02:08:18;;;;;;;3.38;1.23;;;;;;;10.90;43.95;93295.56;5009117;28;20968;-78
2023/04/16 02:10:47;;;;;;;1.83;1.15;;;;;;;10.91;43.84;93291.78;5006099;28;20045;-78
2023/04/16 02:13:13;;;;;;;3.15;1.42;;;;;;;10.77;44.16;93283.28;5007416;28;20037;-78
2023/04/16 02:15:39;;;;;;;2.83;1.55;;;;;;;10.90;44.04;93299.00;5007246;28;20056;-77
2023/04/16 02:18:04;;;;;;;2.40;1.38;;;;;;;10.71;44.24;93278.16;5007039;28;20538;-78
2023/04/16 02:20:30;;;;;;;5.78;1.67;;;;;;;10.63;44.22;93276.38;5007433;28;20041;-78
2023/04/16 02:22:55;;;;;;;2.55;1.45;;;;;;;10.74;44.49;93287.41;5005160;28;20057;-77
2023/04/16 02:25:21;;;;;;;4.85;1.80;;;;;;;10.70;44.47;93294.47;5007080;28;20037;-77
2023/04/16 02:27:47;;;;;;;2.80;1.80;;;;;;;10.58;44.40;93268.59;5006967;28;20049;-78
2023/04/16 02:30:12;;;;;;;5.88;2.50;;;;;;;10.69;44.41;93280.41;5007915;28;20153;-77
2023/04/16 02:32:38;;;;;;;2.88;2.35;;;;;;;10.57;44.78;93264.38;5010569;28;20029;-78
2023/04/16 02:35:03;;;;;;;3.40;1.95;;;;;;;10.67;44.81;93281.81;5006824;28;20435;-77
2023/04/16 02:37:29;;;;;;;6.13;2.70;;;;;;;10.84;44.33;93286.22;5008452;28;20061;-78
2023/04/16 02:39:54;;;;;;;4.43;2.67;;;;;;;10.66;44.20;93274.97;5004310;28;20029;-79
2023/04/16 02:42:20;;;;;;;3.92;2.65;;;;;;;10.81;44.48;93269.00;5006482;28;20044;-78
2023/04/16 02:44:45;;;;;;;4.07;2.45;;;;;;;10.71;44.76;93270.19;5006786;28;20034;-78
2023/04/16 02:47:10;;;;;;;2.58;2.13;;;;;;;10.59;44.60;93253.41;5005395;28;20034;-78
2023/04/16 02:49:36;;;;;;;5.80;2.47;;;;;;;10.51;44.82;93238.31;5006358;28;20558;-78
2023/04/16 02:52:01;;;;;;;6.25;2.75;;;;;;;10.70;44.73;93270.53;5006901;28;20030;-79
2023/04/16 02:54:27;;;;;;;4.10;2.92;;;;;;;10.68;44.91;93262.88;5007557;28;20017;-78
2023/04/16 02:56:52;;;;;;;5.47;2.58;;;;;;;10.64;45.13;93269.19;5005165;28;20906;-78
2023/04/16 02:59:17;;;;;;;4.85;2.83;;;;;;;10.70;45.36;93270.53;5006704;28;20038;-78
2023/04/16 03:01:43;;;;;;;6.85;3.35;;;;;;;10.58;45.75;93270.47;5005074;28;20037;-78
2023/04/16 03:04:08;;;;;;;7.47;2.38;;;;;;;10.65;45.41;93270.75;5007465;28;20915;-77
2023/04/16 03:06:34;;;;;;;4.82;2.72;;;;;;;10.50;45.46;93261.47;5006397;28;20087;-77
2023/04/16 03:08:59;;;;;;;5.43;2.80;;;;;;;10.45;45.75;93252.91;5002078;28;20044;-79
2023/04/16 03:11:25;;;;;;;4.10;2.55;;;;;;;10.86;45.05;93257.38;5016126;28;20041;-79
2023/04/16 03:13:50;;;;;;;4.82;2.97;;;;;;;10.90;45.28;93274.28;5006175;28;20038;-78
2023/04/16 03:16:15;;;;;;;5.55;3.15;;;;;;;10.78;45.18;93264.34;5014813;28;20022;-79
2023/04/16 03:18:41;;;;;;;5.25;3.13;;;;;;;10.68;45.33;93262.09;5005720;28;20018;-77
2023/04/16 03:21:06;;;;;;;4.30;2.63;;;;;;;10.62;45.54;93274.03;5005746;28;20056;-78
2023/04/16 03:23:32;;;;;;;4.57;3.08;;;;;;;10.75;45.48;93288.97;5012389;28;20058;-78
2023/04/16 03:25:57;;;;;;;5.40;3.22;;;;;;;10.56;45.71;93262.06;5005051;28;20107;-78
2023/04/16 03:28:23;;;;;;;5.93;3.47;;;;;;;10.47;45.64;93262.09;5005475;28;20056;-77
2023/04/16 03:30:52;;;;;;;6.07;2.92;;;;;;;10.69;45.86;93287.59;5014233;28;20072;-77
2023/04/16 03:33:18;;;;;;;3.85;2.83;;;;;;;10.78;46.25;93282.97;5006346;28;20499;-78
2023/04/16 03:35:44;;;;;;;4.13;3.35;;;;;;;10.66;46.50;93267.72;5005258;28;20084;-77
2023/04/16 03:38:09;;;;;;;4.80;2.67;;;;;;;10.30;46.67;93252.38;5003634;28;20571;-78
2023/04/16 03:40:35;;;;;;;5.03;2.75;;;;;;;10.26;47.12;93271.94;5002760;28;20038;-77
2023/04/16 03:43:00;;;;;;;4.93;3.40;;;;;;;10.30;47.22;93281.59;5005385;28;20029;-77
2023/04/16 03:45:26;;;;;;;3.88;2.78;;;;;;;10.54;46.55;93296.16;5005163;28;20013;-77
2023/04/16 03:47:51;;;;;;;5.50;3.38;;;;;;;10.45;46.87;93292.78;5007543;28;20033;-77
2023/04/16 03:50:20;;;;;;;5.20;3.70;;;;;;;10.36;47.06;93281.41;5004673;28;20239;-78
2023/04/16 03:52:48;;;;;;;5.30;3.40;;;;;;;10.39;46.63;93292.19;5006788;28;20065;-78
2023/04/16 03:55:13;;;;;;;5.75;3.60;;;;;;;10.10;46.64;93242.50;5002110;28;20346;-75
2023/04/16 03:57:39;;;;;;;8.23;4.18;;;;;;;10.17;46.87;93269.31;5006610;28;20068;-78
2023/04/16 04:00:05;;;;;;;9.63;3.60;;;;;;;10.39;46.70;93296.75;5005356;28;20153;-78
2023/04/16 04:02:30;;;;;;;6.57;3.45;;;;;;;10.31;46.46;93280.50;5004498;28;20034;-77
2023/04/16 04:04:55;;;;;;;7.57;4.00;;;;;;;10.31;46.31;93291.16;5005358;28;20028;-77
2023/04/16 04:07:21;;;;;;;6.88;3.63;;;;;;;10.48;45.93;93281.50;5004104;28;20111;-77
2023/04/16 04:09:46;;;;;;;8.35;4.35;;;;;;;10.59;46.15;93291.44;5005585;28;20533;-76
2023/04/16 04:12:12;;;;;;;7.90;4.00;;;;;;;10.63;46.13;93308.28;5001739;28;20205;-77
2023/04/16 04:14:38;;;;;;;7.60;5.03;;;;;;;10.41;46.56;93294.53;5006816;28;20045;-76
2023/04/16 04:17:04;;;;;;;5.05;4.18;;;;;;;10.00;47.31;93256.16;5003475;28;20069;-77
2023/04/16 04:19:30;;;;;;;4.80;3.72;;;;;;;10.28;47.43;93309.59;5004916;28;20053;-77
2023/04/16 04:21:55;;;;;;;9.55;4.07;;;;;;;10.37;46.70;93320.22;5004765;28;20037;-76
2023/04/16 04:24:21;;;;;;;5.72;4.28;;;;;;;10.24;47.40;93296.19;5005451;28;20386;-77
2023/04/16 04:26:46;;;;;;;7.45;3.67;;;;;;;10.50;47.58;93306.66;5005595;28;20523;-77
2023/04/16 04:29:12;;;;;;;7.05;4.35;;;;;;;10.61;47.15;93315.03;5005679;28;20109;-77
2023/04/16 04:31:37;;;;;;;6.13;4.18;;;;;;;10.47;47.77;93314.50;5003940;28;20045;-77
2023/04/16 04:34:03;;;;;;;8.88;4.32;;;;;;;10.47;48.06;93319.81;5005349;28;20396;-78
2023/04/16 04:36:28;;;;;;;7.35;4.13;;;;;;;10.48;48.11;93324.03;5004054;28;20475;-78
2023/04/16 04:38:54;;;;;;;4.68;3.28;;;;;;;10.47;48.63;93315.28;5004636;28;20045;-78
2023/04/16 04:41:20;;;;;;;6.78;3.95;;;;;;;10.33;48.79;93301.44;5005932;28;20037;-77
2023/04/16 04:43:46;;;;;;;7.03;3.92;;;;;;;10.46;49.23;93318.28;5004133;28;20038;-78
2023/04/16 04:46:11;;;;;;;4.65;3.10;;;;;;;10.43;48.67;93309.06;5004256;28;20056;-77
2023/04/16 04:48:36;;;;;;;5.32;3.15;;;;;;;10.53;48.75;93314.00;5005491;28;20026;-77
2023/04/16 04:51:03;;;;;;;7.70;3.63;;;;;;;10.69;48.35;93330.94;5005082;28;20095;-77
2023/04/16 04:53:28;;;;;;;9.23;3.95;;;;;;;10.70;48.38;93329.06;5004022;28;20512;-79
2023/04/16 04:55:54;;;;;;;7.82;3.38;;;;;;;10.59;48.59;93311.91;5003759;28;20594;-78
2023/04/16 04:58:20;;;;;;;6.53;3.33;;;;;;;10.74;49.14;93314.78;5011934;28;20387;-77
2023/04/16 05:00:45;;;;;;;5.50;3.10;;;;;;;10.72;48.03;93292.25;5003738;28;20033;-78
2023/04/16 05:03:11;;;;;;;3.60;2.90;;;;;;;10.78;47.72;93314.91;5005819;28;20064;-78
2023/04/16 05:05:40;;;;;;;4.82;3.15;;;;;;;10.92;47.76;93336.69;5006406;28;20116;-78
2023/04/16 05:08:06;;;;;;;5.88;3.75;;;;;;;10.78;47.69;93319.44;5008470;28;20100;-77
2023/04/16 05:10:31;;;;;;;7.20;3.03;;;;;;;10.87;48.52;93323.56;5006786;28;20448;-77
2023/04/16 05:12:56;;;;;;;6.38;3.30;;;;;;;10.92;48.61;93314.63;5010127;28;20025;-77
2023/04/16 05:15:22;;;;;;;5.82;3.28;;;;;;;10.91;49.58;93319.16;5007823;28;20034;-77
2023/04/16 05:17:47;;;;;;;9.10;4.75;;;;;;;11.03;46.84;93339.72;5008967;28;20037;-77
2023/04/16 05:20:13;;;;;;;10.23;4.90;;;;;;;10.96;45.35;93321.63;5009322;28;20038;-78
2023/04/16 05:22:38;;;;;;;8.05;4.38;;;;;;;11.10;45.79;93337.31;5008860;28;20045;-77
2023/04/16 05:25:04;;;;;;;10.45;5.38;;;;;;;11.22;45.91;93334.69;5006703;28;20494;-78
2023/04/16 05:27:29;;;;;;;9.45;5.07;;;;;;;11.09;45.28;93317.91;5008795;28;20063;-78
2023/04/16 05:29:55;;;;;;;6.28;4.30;;;;;;;11.01;45.81;93313.44;5013891;28;20056;-78
2023/04/16 05:32:20;;;;;;;7.95;4.95;;;;;;;11.08;45.64;93312.91;5008838;28;20128;-78
2023/04/16 05:34:45;;;;;;;5.95;4.85;;;;;;;11.12;46.22;93325.22;5015761;28;20038;-77
2023/04/16 05:37:11;;;;;;;12.40;5.43;;;;;;;11.02;45.77;93335.50;5022886;28;20084;-77
2023/04/16 05:39:39;;;;;;;9.85;4.55;;;;;;;10.63;45.53;93318.13;5008966;28;20487;-78
2023/04/16 05:42:04;;;;;;;8.23;5.03;;;;;;;10.63;46.19;93328.78;5007811;28;20074;-79
2023/04/16 05:44:30;;;;;;;8.85;5.13;;;;;;;10.85;45.71;93335.66;5007799;28;20141;-77
2023/04/16 05:46:55;;;;;;;10.40;4.90;;;;;;;10.66;45.84;93328.91;5005828;28;20043;-79
2023/04/16 05:49:21;;;;;;;5.53;4.90;;;;;;;10.92;45.38;93333.25;5008956;28;20099;-78
2023/04/16 05:51:47;;;;;;;8.18;5.85;;;;;;;11.13;45.28;93324.13;5007450;28;20107;-78
2023/04/16 05:54:12;;;;;;;16.20;6.22;;;;;;;11.24;44.60;93331.72;5006806;28;20056;-78
2023/04/16 05:56:37;;;;;;;7.85;5.55;;;;;;;11.21;44.94;93327.03;5007645;28;20041;-78
2023/04/16 05:59:03;;;;;;;11.95;6.40;;;;;;;10.86;45.28;93322.00;5007362;28;20571;-77
2023/04/16 06:01:29;;;;;;;12.07;5.72;;;;;;;10.47;46.30;93330.44;5006203;28;20346;-78
2023/04/16 06:03:54;;;;;;;10.48;6.07;;;;;;;10.25;46.50;93337.59;5008064;28;20642;-78
2023/04/16 06:06:19;;;;;;;10.48;5.82;;;;;;;10.23;46.68;93321.19;5007706;28;20111;-78
2023/04/16 06:08:45;;;;;;;11.43;6.28;;;;;;;10.29;46.58;93327.09;5006568;28;20033;-77
2023/04/16 06:11:10;;;;;;;13.35;6.40;;;;;;;10.24;46.65;93312.13;5007434;28;20116;-78
2023/04/16 06:13:38;;;;;;;8.48;5.85;;;;;;;10.11;47.00;93313.16;5005689;28;20041;-78
2023/04/16 06:16:03;;;;;;;9.20;5.05;;;;;;;10.58;46.34;93319.13;5008460;28;20034;-78
2023/04/16 06:18:29;;;;;;;9.82;5.95;;;;;;;10.48;46.11;93326.69;5005567;28;20037;-78
2023/04/16 06:20:55;;;;;;;11.05;5.20;;;;;;;10.87;45.92;93336.88;5004873;28;20311;-78
2023/04/16 06:23:20;;;;;;;9.95;4.93;;;;;;;11.07;44.81;93311.34;5006637;28;20121;-78
2023/04/16 06:25:45;;;;;;;9.60;6.00;;;;;;;11.39;44.39;93328.44;5006662;28;20693;-78
2023/04/16 06:28:11;;;;;;;9.63;5.53;;;;;;;11.31;45.11;93327.38;5006630;28;20030;-78
2023/04/16 06:30:38;;;;;;;7.10;4.93;;;;;;;11.25;44.65;93318.06;5006460;28;20079;-77
2023/04/16 06:33:03;;;;;;;10.10;5.57;;;;;;;11.45;43.96;93325.22;5004961;28;20472;-77
2023/04/16 06:35:28;;;;;;;8.65;5.07;;;;;;;11.38;44.41;93308.22;5007847;28;20129;-77
2023/04/16 06:37:54;;;;;;;10.45;5.95;;;;;;;11.49;44.31;93312.78;5005282;28;20501;-77
2023/04/16 06:40:19;;;;;;;9.10;5.72;;;;;;;11.62;43.78;93288.88;5003903;28;20157;-78
2023/04/16 06:42:45;;;;;;;9.30;6.40;;;;;;;11.50;43.77;93302.91;5007566;28;20022;-77
2023/04/16 06:45:11;;;;;;;8.82;6.40;;;;;;;11.04;45.09;93304.81;5006673;28;20029;-77
2023/04/16 06:47:36;;;;;;;12.45;7.28;;;;;;;10.77;45.94;93317.88;5006553;28;20026;-78
2023/04/16 06:50:04;;;;;;;15.30;7.95;;;;;;;11.19;44.82;93298.09;5006371;28;20045;-78
2023/04/16 06:52:30;;;;;;;14.95;7.72;;;;;;;11.63;44.27;93328.50;5007777;28;20047;-78
2023/04/16 06:54:55;;;;;;;9.43;6.63;;;;;;;11.23;45.32;93319.50;5005049;28;20025;-77
2023/04/16 06:57:21;;;;;;;7.95;6.15;;;;;;;11.46;44.87;93299.34;5007439;28;20037;-78
2023/04/16 06:59:46;;;;;;;11.43;7.32;;;;;;;11.98;43.33;93313.63;5004950;28;20037;-77
2023/04/16 07:02:11;;;;;;;10.27;7.22;;;;;;;11.92;43.27;93320.31;5007417;28;20129;-77
2023/04/16 07:04:37;;;;;;;9.32;5.88;;;;;;;11.90;42.74;93303.09;5006014;28;20397;-77
2023/04/16 07:07:05;;;;;;;11.95;7.47;;;;;;;11.68;43.88;93314.19;5005220;28;20041;-79
2023/04/16 07:09:30;;;;;;;10.75;7.40;;;;;;;11.29;43.90;93310.22;5005983;28;20633;-77
2023/04/16 07:11:55;;;;;;;11.77;7.10;;;;;;;11.53;44.43;93328.94;5002574;28;20042;-78
2023/04/16 07:14:21;;;;;;;15.95;7.70;;;;;;;11.78;44.04;93313.75;5006487;28;20127;-77
2023/04/16 07:16:46;;;;;;;14.75;7.82;;;;;;;12.22;43.05;93328.09;5005958;28;20042;-77
2023/04/16 07:19:12;;;;;;;14.10;8.95;;;;;;;12.35;42.58;93329.63;5006311;28;20026;-77
2023/04/16 07:21:38;;;;;;;13.35;8.60;;;;;;;12.10;43.06;93318.19;5005199;28;20550;-77
2023/04/16 07:24:03;;;;;;;9.27;6.22;;;;;;;11.65;43.35;93320.16;5008671;28;20044;-77
2023/04/16 07:26:29;;;;;;;11.80;7.07;;;;;;;11.42;44.11;93333.09;5004555;28;20038;-77
2023/04/16 07:28:54;;;;;;;13.68;8.10;;;;;;;11.23;44.61;93327.47;5005733;28;20041;-77
2023/04/16 07:31:20;;;;;;;13.88;7.50;;;;;;;11.31;45.11;93332.72;5004471;28;20044;-77
2023/04/16 07:33:45;;;;;;;9.02;6.13;;;;;;;11.01;45.53;93321.41;5006229;28;20014;-78
2023/04/16 07:36:11;;;;;;;12.63;6.18;;;;;;;11.05;45.74;93327.63;5004810;28;20033;-77
2023/04/16 07:38:36;;;;;;;13.20;7.63;;;;;;;11.24;44.98;93307.75;5004685;28;20077;-78
2023/04/16 07:41:01;;;;;;;14.95;7.60;;;;;;;11.75;44.60;93331.16;5006605;28;20041;-78
2023/04/16 07:43:27;;;;;;;9.15;6.03;;;;;;;11.80;44.21;93328.28;5005350;28;20052;-78
2023/04/16 07:45:52;;;;;;;13.70;6.68;;;;;;;12.12;43.56;93323.22;5006730;28;20025;-77
2023/04/16 07:48:18;;;;;;;12.35;7.03;;;;;;;12.33;43.28;93326.50;5005598;28;20037;-77
2023/04/16 07:50:43;;;;;;;14.50;6.65;;;;;;;12.57;42.45;93310.47;5006034;28;20305;-77
2023/04/16 07:53:09;;;;;;;10.02;6.03;;;;;;;12.68;42.68;93332.94;5005029;28;20045;-76
2023/04/16 07:55:34;;;;;;;7.20;5.07;;;;;;;11.94;43.28;93318.09;5005359;28;20042;-77
2023/04/16 07:58:00;;;;;;;10.40;5.80;;;;;;;12.16;44.11;93326.75;5006036;28;20095;-78
2023/04/16 08:00:25;;;;;;;8.15;5.70;;;;;;;12.24;43.58;93315.97;5003176;28;20764;-79
2023/04/16 08:02:50;;;;;;;9.65;5.15;;;;;;;12.01;44.78;93328.19;5006287;28;20065;-77
2023/04/16 08:05:16;;;;;;;10.15;5.43;;;;;;;11.86;44.83;93305.66;5003838;28;20034;-77
2023/04/16 08:07:41;;;;;;;12.00;6.25;;;;;;;11.48;44.73;93305.16;5006127;28;20034;-74
2023/04/16 08:10:07;;;;;;;9.52;6.32;;;;;;;11.48;45.21;93299.81;5005657;28;20136;-79
2023/04/16 08:12:33;;;;;;;13.52;6.60;;;;;;;11.68;44.32;93293.66;5003966;28;20033;-77
2023/04/16 08:14:59;;;;;;;9.43;5.43;;;;;;;11.75;44.94;93312.53;5004893;28;20038;-79
2023/04/16 08:17:24;;;;;;;14.27;6.28;;;;;;;12.39;44.81;93317.19;5005185;28;20091;-77
2023/04/16 08:19:50;;;;;;;9.82;6.50;;;;;;;12.76;43.65;93316.00;5007019;28;20585;-79
2023/04/16 08:22:15;;;;;;;9.85;5.82;;;;;;;12.75;43.26;93303.78;5003473;28;20437;-76
2023/04/16 08:24:41;;;;;;;10.10;5.32;;;;;;;11.68;44.38;93312.31;5007120;28;20116;-76
2023/04/16 08:27:06;;;;;;;9.77;6.07;;;;;;;12.09;44.71;93327.31;5005993;28;20049;-77
2023/04/16 08:29:32;;;;;;;7.47;4.25;;;;;;;12.17;44.03;93317.66;5002850;28;20041;-78
2023/04/16 08:32:00;;;;;;;10.15;4.93;;;;;;;12.06;44.63;93319.97;5005810;28;20040;-77
2023/04/16 08:34:25;;;;;;;6.03;3.38;;;;;;;12.30;44.37;93308.53;5006584;28;20041;-78
2023/04/16 08:36:51;;;;;;;9.10;3.78;;;;;;;12.82;42.93;93292.53;5005505;28;20123;-78
2023/04/16 08:39:16;;;;;;;7.97;4.60;;;;;;;12.73;42.92;93303.34;5005358;28;20037;-78
2023/04/16 08:41:44;;;;;;;9.55;5.35;;;;;;;12.60;42.81;93301.06;5012654;28;20049;-77
2023/04/16 08:44:30;;;;;;;7.57;5.05;;;;;;;13.20;43.11;93300.06;5009951;28;20333;-78
2023/04/16 08:46:57;;;;;;;;;;;;;;;12.54;42.96;93303.16;5009551;28;20763;-78
2023/04/16 08:49:24;;;;;;;8.10;4.60;;;;;;;12.38;43.34;93307.63;5011739;28;20291;-78
2023/04/16 08:51:51;;;;;;;7.05;3.83;;;;;;;12.91;42.93;93295.81;5008268;28;22208;-78
2023/04/16 08:54:29;;;;;;;8.88;4.78;;;;;;;12.61;43.19;93302.63;5013039;28;20038;-78
2023/04/16 08:56:57;;;;;;;9.60;4.63;;;;;;;12.71;41.91;93292.22;5009460;28;20367;-78
2023/04/16 08:59:24;;;;;;;6.00;4.15;;;;;;;12.93;41.70;93282.94;5010885;28;20515;-78
2023/04/16 09:01:51;;;;;;;7.00;4.95;;;;;;;12.43;42.38;93273.50;5008283;28;20045;-79
2023/04/16 09:04:17;;;;;;;7.55;3.88;;;;;;;12.66;42.65;93279.16;5013177;28;20443;-77
2023/04/16 09:06:44;;;;;;;7.95;3.80;;;;;;;13.11;41.62;93268.16;5011779;28;20128;-78
2023/04/16 09:09:11;;;;;;;7.30;4.35;;;;;;;13.37;41.79;93294.41;5008967;28;20603;-78
2023/04/16 09:11:38;;;;;;;7.30;4.20;;;;;;;13.58;41.46;93294.97;5018409;28;20219;-78
2023/04/16 09:14:08;;;;;;;7.65;3.33;;;;;;;13.84;42.02;93299.06;5011865;28;20153;-78
2023/04/16 09:16:34;;;;;;;9.90;3.80;;;;;;;13.82;41.56;93296.72;5009383;28;20037;-77
2023/04/16 09:18:59;;;;;;;7.70;3.92;;;;;;;13.10;41.85;93282.66;5010115;28;20148;-77
2023/04/16 09:21:25;;;;;;;7.28;4.25;;;;;;;12.98;42.03;93293.38;5011890;28;20444;-78
2023/04/16 09:23:52;;;;;;;8.30;4.03;;;;;;;13.01;41.58;93278.56;5007871;28;20062;-78
2023/04/16 09:26:18;;;;;;;4.55;3.40;;;;;;;13.59;42.30;93287.75;5011092;28;20045;-78
2023/04/16 09:28:45;;;;;;;4.93;2.67;;;;;;;13.67;40.23;93274.22;5010579;28;20041;-79
2023/04/16 09:31:18;;;;;;;6.18;3.03;;;;;;;13.82;40.87;93263.88;5011320;28;20392;-78
2023/04/16 09:34:01;;;;;;;8.32;3.13;;;;;;;14.11;39.64;93282.13;5012111;28;20025;-77
2023/04/16 09:36:27;;;;;;;9.52;3.65;;;;;;;14.28;39.86;93284.41;5009279;28;20080;-78
2023/04/16 09:38:53;;;;;;;4.82;2.80;;;;;;;14.24;41.16;93262.16;5011472;28;20029;-78
2023/04/16 09:41:24;;;;;;;5.72;2.67;;;;;;;14.22;38.60;93245.69;5010241;28;20072;-78
2023/04/16 09:43:57;;;;;;;7.00;2.55;;;;;;;14.35;38.40;93276.53;5010442;28;20515;-78
2023/04/16 09:46:42;;;;;;;5.90;2.60;;;;;;;14.12;38.74;93279.09;5010119;28;20228;-78
2023/04/16 09:49:09;;;;;;;4.72;2.63;;;;;;;14.00;39.19;93265.03;5009193;28;20046;-77
2023/04/16 09:51:45;;;;;;;7.32;2.78;;;;;;;14.14;39.27;93276.06;5024894;28;20079;-78
2023/04/16 09:54:11;;;;;;;7.43;3.03;;;;;;;13.98;39.74;93227.22;5007821;28;20152;-77
2023/04/16 09:56:44;;;;;;;6.88;2.33;;;;;;;13.88;38.62;93249.91;5006219;28;20568;-77
2023/04/16 09:59:16;;;;;;;6.85;2.78;;;;;;;13.91;39.31;93256.44;5006061;28;20044;-77
2023/04/16 10:01:42;;;;;;;5.47;2.63;;;;;;;13.92;38.43;93252.66;5007707;28;20038;-77
2023/04/16 10:04:07;;;;;;;13.82;2.70;;;;;;;13.92;38.12;93244.63;5006437;28;20040;-77
2023/04/16 10:06:33;;;;;;;6.68;2.13;;;;;;;14.21;38.76;93257.50;5008864;28;20434;-77
2023/04/16 10:08:58;;;;;;;4.88;2.50;;;;;;;14.30;38.92;93252.75;5005932;28;20034;-78
2023/04/16 10:11:24;;;;;;;7.20;2.75;;;;;;;13.71;38.50;93207.50;5009161;28;20433;-76
2023/04/16 10:13:50;;;;;;;7.15;2.80;;;;;;;13.32;38.94;93219.88;5004962;28;20061;-77
2023/04/16 10:16:16;;;;;;;6.57;2.65;;;;;;;13.80;39.51;93258.06;5008727;28;20140;-77
2023/04/16 10:18:44;;;;;;;7.13;2.47;;;;;;;14.23;39.17;93244.56;5006328;28;20183;-76
2023/04/16 10:21:14;;;;;;;3.47;2.08;;;;;;;14.45;39.13;93235.88;5008595;28;20038;-77
2023/04/16 10:23:41;;;;;;;6.13;2.55;;;;;;;14.51;38.41;93234.47;5004932;28;20069;-77
2023/04/16 10:26:07;;;;;;;6.15;2.60;;;;;;;14.42;37.99;93228.53;5007179;28;20590;-78
2023/04/16 10:28:34;;;;;;;8.68;2.08;;;;;;;14.67;38.52;93239.03;5006152;28;20034;-77
2023/04/16 10:31:06;;;;;;;3.55;1.75;;;;;;;14.74;37.53;93237.25;5007275;28;20435;-76
2023/04/16 10:33:33;;;;;;;6.68;2.60;;;;;;;14.84;38.02;93236.69;5013497;28;20423;-77
2023/04/16 10:36:10;;;;;;;7.68;2.47;;;;;;;14.90;37.72;93235.28;5005495;28;20041;-76
2023/04/16 10:38:59;;;;;;;6.97;2.42;;;;;;;14.93;37.51;93237.25;5007372;28;20092;-77
2023/04/16 10:41:25;;;;;;;2.80;2.25;;;;;;;14.92;37.94;93224.19;5002825;28;21047;-76
2023/04/16 10:43:51;;;;;;;4.90;2.70;;;;;;;14.76;37.25;93215.50;5005006;28;20433;-77
2023/04/16 10:46:25;;;;;;;8.90;2.78;;;;;;;14.82;37.42;93208.72;5005130;28;20025;-77
2023/04/16 10:48:55;;;;;;;7.10;3.47;;;;;;;14.44;37.74;93191.50;5004409;28;20594;-77
2023/04/16 10:51:30;;;;;;;6.13;2.63;;;;;;;14.77;38.03;93220.47;5007100;28;20092;-78
2023/04/16 10:54:02;;;;;;;8.00;3.10;;;;;;;15.09;37.93;93228.34;5005239;28;20129;-78
2023/04/16 10:56:32;;;;;;;4.60;2.08;;;;;;;15.06;36.95;93227.13;5013433;28;20508;-76
2023/04/16 10:58:57;;;;;;;6.25;2.13;;;;;;;14.41;37.88;93224.31;5006889;28;20041;-77
2023/04/16 11:01:34;;;;;;;6.60;3.20;;;;;;;14.66;37.60;93222.19;5005971;28;20094;-76
2023/04/16 11:04:22;;;;;;;5.50;2.70;;;;;;;14.84;37.90;93223.31;5005054;28;20049;-76
2023/04/16 11:07:01;;;;;;;4.38;2.47;;;;;;;15.29;36.80;93224.50;5006815;28;20530;-77
2023/04/16 11:09:58;;;;;;;4.35;2.28;;;;;;;15.26;36.67;93217.94;5005535;28;20065;-79
2023/04/16 11:12:56;;;;;;;8.48;4.75;;;;;;;15.56;37.08;93214.66;5006204;28;20033;-78
2023/04/16 11:15:22;;;;;;;6.22;3.10;;;;;;;15.79;36.37;93202.03;4993681;28;20346;-76
2023/04/16 11:17:50;;;;;;;5.78;3.03;;;;;;;15.76;37.06;93195.44;5007420;28;20034;-77
2023/04/16 11:20:20;;;;;;;5.50;2.60;;;;;;;15.81;36.42;93205.09;5004539;28;20276;-76
2023/04/16 11:22:46;;;;;;;2.92;2.00;;;;;;;15.43;37.01;93209.44;5005491;28;20084;-76
2023/04/16 11:25:11;;;;;;;5.80;3.10;;;;;;;15.64;36.34;93194.88;5006424;28;20022;-76
2023/04/16 11:27:37;;;;;;;6.32;2.55;;;;;;;15.53;36.25;93200.06;5007274;28;20029;-76
2023/04/16 11:30:08;;;;;;;7.85;2.22;;;;;;;15.59;37.00;93201.31;5005221;28;20042;-76